KPAO

Palo Alto Airport

Palo Alto, California, USA
METAR KPAO 230347Z 31010KT 10SM SKC 14/10 A2997
Observed Flight Rules
Oct-23 @ 03:47 UTC (8 hours ago) Visual Flight Rules
Wind Visibility Clouds
310° at 10 knots 10 miles
  • Clear skies
Temperatures Readings
Current 14°C / 57°F
Dewpoint 10°C / 50°F
Humidity 77%
Altimeter 29.97" Hg
Pressure 1015 hPa
Elevation 2
METAR KPAO 230347Z 31010KT 10SM SKC 14/10 A2997
Observed Flight Rules
Oct-23 @ 03:47 UTC
(8 hours ago)
VFR
Wind Visibility
310° at 10 knots 10 miles
Clouds
  • Clear skies
Temperature Dewpoint
14°C / 57°F 10°C / 50°F
Humidity Altimeter Pressure
77% 29.97" Hg 1015 hPa